sensor_id;sensor_type;location;lat;lon;timestamp;P1;durP1;ratioP1;P2;durP2;ratioP2
8036;SDS011;4061;51.360;7.340;2024-02-28T00:00:42;45.00;;;15.03;;
8036;SDS011;4061;51.360;7.340;2024-02-28T00:03:10;55.00;;;15.40;;
8036;SDS011;4061;51.360;7.340;2024-02-28T00:05:37;40.53;;;15.57;;
8036;SDS011;4061;51.360;7.340;2024-02-28T00:08:04;31.57;;;11.70;;
8036;SDS011;4061;51.360;7.340;2024-02-28T00:10:31;30.63;;;12.50;;
8036;SDS011;4061;51.360;7.340;2024-02-28T00:12:59;29.70;;;10.80;;
8036;SDS011;4061;51.360;7.340;2024-02-28T00:15:26;53.53;;;12.70;;
8036;SDS011;4061;51.360;7.340;2024-02-28T00:17:53;40.63;;;12.43;;
8036;SDS011;4061;51.360;7.340;2024-02-28T00:20:23;27.63;;;10.30;;
8036;SDS011;4061;51.360;7.340;2024-02-28T00:22:52;64.20;;;12.60;;
8036;SDS011;4061;51.360;7.340;2024-02-28T00:25:19;28.97;;;11.53;;
8036;SDS011;4061;51.360;7.340;2024-02-28T00:27:46;41.57;;;12.30;;
8036;SDS011;4061;51.360;7.340;2024-02-28T00:30:13;40.30;;;12.40;;
8036;SDS011;4061;51.360;7.340;2024-02-28T00:32:40;73.20;;;13.37;;
8036;SDS011;4061;51.360;7.340;2024-02-28T00:35:07;145.67;;;11.30;;
8036;SDS011;4061;51.360;7.340;2024-02-28T00:37:36;46.20;;;9.63;;
8036;SDS011;4061;51.360;7.340;2024-02-28T00:40:03;34.37;;;9.33;;
8036;SDS011;4061;51.360;7.340;2024-02-28T00:42:30;31.73;;;10.60;;
8036;SDS011;4061;51.360;7.340;2024-02-28T00:44:57;39.10;;;12.80;;
8036;SDS011;4061;51.360;7.340;2024-02-28T00:47:24;32.40;;;11.77;;
8036;SDS011;4061;51.360;7.340;2024-02-28T00:49:51;39.60;;;12.47;;
8036;SDS011;4061;51.360;7.340;2024-02-28T00:52:18;31.90;;;11.13;;
8036;SDS011;4061;51.360;7.340;2024-02-28T00:54:47;32.30;;;11.90;;
8036;SDS011;4061;51.360;7.340;2024-02-28T00:57:13;37.40;;;12.43;;
8036;SDS011;4061;51.360;7.340;2024-02-28T00:59:40;40.03;;;14.13;;
8036;SDS011;4061;51.360;7.340;2024-02-28T01:02:08;36.47;;;13.10;;
8036;SDS011;4061;51.360;7.340;2024-02-28T01:04:35;37.73;;;13.60;;
8036;SDS011;4061;51.360;7.340;2024-02-28T01:07:02;30.20;;;11.67;;
8036;SDS011;4061;51.360;7.340;2024-02-28T01:09:29;33.97;;;13.13;;
8036;SDS011;4061;51.360;7.340;2024-02-28T01:11:57;39.53;;;13.50;;
8036;SDS011;4061;51.360;7.340;2024-02-28T01:14:24;35.20;;;13.37;;
8036;SDS011;4061;51.360;7.340;2024-02-28T01:16:51;28.70;;;10.57;;
8036;SDS011;4061;51.360;7.340;2024-02-28T01:19:18;26.30;;;10.57;;
8036;SDS011;4061;51.360;7.340;2024-02-28T01:21:45;24.00;;;10.37;;
8036;SDS011;4061;51.360;7.340;2024-02-28T01:24:12;25.53;;;10.20;;
8036;SDS011;4061;51.360;7.340;2024-02-28T01:26:39;39.50;;;14.20;;
8036;SDS011;4061;51.360;7.340;2024-02-28T01:29:08;28.47;;;11.40;;
8036;SDS011;4061;51.360;7.340;2024-02-28T01:31:35;29.37;;;11.40;;
8036;SDS011;4061;51.360;7.340;2024-02-28T01:34:02;33.60;;;12.47;;
8036;SDS011;4061;51.360;7.340;2024-02-28T01:36:29;23.70;;;11.23;;
8036;SDS011;4061;51.360;7.340;2024-02-28T01:38:56;42.90;;;13.57;;
8036;SDS011;4061;51.360;7.340;2024-02-28T01:41:23;34.00;;;12.90;;
8036;SDS011;4061;51.360;7.340;2024-02-28T01:43:50;31.57;;;12.07;;
8036;SDS011;4061;51.360;7.340;2024-02-28T01:46:23;40.57;;;13.13;;
8036;SDS011;4061;51.360;7.340;2024-02-28T01:48:51;38.03;;;12.47;;
8036;SDS011;4061;51.360;7.340;2024-02-28T01:51:19;29.20;;;11.50;;
8036;SDS011;4061;51.360;7.340;2024-02-28T01:53:46;31.17;;;13.23;;
8036;SDS011;4061;51.360;7.340;2024-02-28T01:56:14;27.57;;;11.83;;
8036;SDS011;4061;51.360;7.340;2024-02-28T01:58:41;36.57;;;11.70;;
8036;SDS011;4061;51.360;7.340;2024-02-28T02:01:09;29.67;;;11.47;;
8036;SDS011;4061;51.360;7.340;2024-02-28T02:03:37;35.73;;;13.50;;
8036;SDS011;4061;51.360;7.340;2024-02-28T02:06:04;29.80;;;11.90;;
8036;SDS011;4061;51.360;7.340;2024-02-28T02:08:32;31.70;;;12.57;;
8036;SDS011;4061;51.360;7.340;2024-02-28T02:10:59;30.13;;;10.37;;
8036;SDS011;4061;51.360;7.340;2024-02-28T02:13:26;40.43;;;13.93;;
8036;SDS011;4061;51.360;7.340;2024-02-28T02:15:53;39.83;;;13.70;;
8036;SDS011;4061;51.360;7.340;2024-02-28T02:18:20;31.43;;;13.13;;
8036;SDS011;4061;51.360;7.340;2024-02-28T02:20:49;36.97;;;12.90;;
8036;SDS011;4061;51.360;7.340;2024-02-28T02:23:18;26.07;;;11.80;;
8036;SDS011;4061;51.360;7.340;2024-02-28T02:25:45;36.73;;;11.37;;
8036;SDS011;4061;51.360;7.340;2024-02-28T02:28:12;28.80;;;12.10;;
8036;SDS011;4061;51.360;7.340;2024-02-28T02:30:39;28.53;;;10.47;;
8036;SDS011;4061;51.360;7.340;2024-02-28T02:33:07;63.07;;;12.57;;
8036;SDS011;4061;51.360;7.340;2024-02-28T02:35:34;32.33;;;12.07;;
8036;SDS011;4061;51.360;7.340;2024-02-28T02:38:02;28.20;;;12.33;;
8036;SDS011;4061;51.360;7.340;2024-02-28T02:40:30;25.93;;;10.10;;
8036;SDS011;4061;51.360;7.340;2024-02-28T02:42:57;27.37;;;11.43;;
8036;SDS011;4061;51.360;7.340;2024-02-28T02:45:24;23.80;;;10.47;;
8036;SDS011;4061;51.360;7.340;2024-02-28T02:47:51;31.60;;;12.03;;
8036;SDS011;4061;51.360;7.340;2024-02-28T02:50:18;36.20;;;13.00;;
8036;SDS011;4061;51.360;7.340;2024-02-28T02:52:45;30.77;;;11.93;;
8036;SDS011;4061;51.360;7.340;2024-02-28T02:55:12;54.03;;;12.13;;
8036;SDS011;4061;51.360;7.340;2024-02-28T02:57:41;49.93;;;10.80;;
8036;SDS011;4061;51.360;7.340;2024-02-28T03:00:09;75.57;;;12.73;;
8036;SDS011;4061;51.360;7.340;2024-02-28T03:02:36;59.03;;;13.50;;
8036;SDS011;4061;51.360;7.340;2024-02-28T03:05:05;46.17;;;11.67;;
8036;SDS011;4061;51.360;7.340;2024-02-28T03:07:32;58.27;;;11.87;;
8036;SDS011;4061;51.360;7.340;2024-02-28T03:09:59;73.97;;;10.47;;
8036;SDS011;4061;51.360;7.340;2024-02-28T03:12:26;64.33;;;9.67;;
8036;SDS011;4061;51.360;7.340;2024-02-28T03:14:55;35.07;;;12.00;;
8036;SDS011;4061;51.360;7.340;2024-02-28T03:17:22;28.43;;;10.63;;
8036;SDS011;4061;51.360;7.340;2024-02-28T03:19:49;37.90;;;11.63;;
8036;SDS011;4061;51.360;7.340;2024-02-28T03:22:16;44.53;;;12.77;;
8036;SDS011;4061;51.360;7.340;2024-02-28T03:24:43;35.10;;;11.17;;
8036;SDS011;4061;51.360;7.340;2024-02-28T03:27:10;40.17;;;10.70;;
8036;SDS011;4061;51.360;7.340;2024-02-28T03:29:37;77.20;;;11.50;;
8036;SDS011;4061;51.360;7.340;2024-02-28T03:32:05;36.17;;;10.57;;
8036;SDS011;4061;51.360;7.340;2024-02-28T03:34:32;40.13;;;11.77;;
8036;SDS011;4061;51.360;7.340;2024-02-28T03:36:59;51.17;;;12.17;;
8036;SDS011;4061;51.360;7.340;2024-02-28T03:39:27;47.07;;;12.00;;
8036;SDS011;4061;51.360;7.340;2024-02-28T03:41:54;49.20;;;11.37;;
8036;SDS011;4061;51.360;7.340;2024-02-28T03:44:21;57.90;;;12.87;;
8036;SDS011;4061;51.360;7.340;2024-02-28T03:46:50;43.53;;;11.03;;
8036;SDS011;4061;51.360;7.340;2024-02-28T03:49:19;34.20;;;12.70;;
8036;SDS011;4061;51.360;7.340;2024-02-28T03:51:46;45.57;;;10.80;;
8036;SDS011;4061;51.360;7.340;2024-02-28T03:54:13;76.37;;;13.83;;
8036;SDS011;4061;51.360;7.340;2024-02-28T03:56:40;57.93;;;10.57;;
8036;SDS011;4061;51.360;7.340;2024-02-28T03:59:07;73.60;;;11.40;;
8036;SDS011;4061;51.360;7.340;2024-02-28T04:01:34;61.33;;;12.27;;
8036;SDS011;4061;51.360;7.340;2024-02-28T04:04:01;82.40;;;14.20;;
8036;SDS011;4061;51.360;7.340;2024-02-28T04:06:29;82.13;;;12.97;;
8036;SDS011;4061;51.360;7.340;2024-02-28T04:08:56;59.17;;;12.90;;
8036;SDS011;4061;51.360;7.340;2024-02-28T04:11:23;65.73;;;12.97;;
8036;SDS011;4061;51.360;7.340;2024-02-28T04:13:50;52.00;;;10.90;;
8036;SDS011;4061;51.360;7.340;2024-02-28T04:16:17;53.10;;;13.23;;
8036;SDS011;4061;51.360;7.340;2024-02-28T04:18:44;60.50;;;12.60;;
8036;SDS011;4061;51.360;7.340;2024-02-28T04:21:11;90.23;;;12.80;;
8036;SDS011;4061;51.360;7.340;2024-02-28T04:23:40;52.43;;;13.27;;
8036;SDS011;4061;51.360;7.340;2024-02-28T04:26:09;45.73;;;13.37;;
8036;SDS011;4061;51.360;7.340;2024-02-28T04:28:36;72.03;;;13.67;;
8036;SDS011;4061;51.360;7.340;2024-02-28T04:31:03;68.10;;;14.67;;
8036;SDS011;4061;51.360;7.340;2024-02-28T04:33:30;64.03;;;15.53;;
8036;SDS011;4061;51.360;7.340;2024-02-28T04:35:57;46.40;;;13.97;;
8036;SDS011;4061;51.360;7.340;2024-02-28T04:38:24;95.33;;;13.53;;
8036;SDS011;4061;51.360;7.340;2024-02-28T04:40:52;90.67;;;15.57;;
8036;SDS011;4061;51.360;7.340;2024-02-28T04:43:19;79.10;;;14.27;;
8036;SDS011;4061;51.360;7.340;2024-02-28T04:45:46;67.73;;;13.93;;
8036;SDS011;4061;51.360;7.340;2024-02-28T04:48:13;94.20;;;15.60;;
8036;SDS011;4061;51.360;7.340;2024-02-28T04:50:40;98.20;;;16.60;;
8036;SDS011;4061;51.360;7.340;2024-02-28T04:53:07;103.13;;;16.90;;
8036;SDS011;4061;51.360;7.340;2024-02-28T04:55:34;93.63;;;15.30;;
8036;SDS011;4061;51.360;7.340;2024-02-28T04:58:03;73.37;;;15.23;;
8036;SDS011;4061;51.360;7.340;2024-02-28T05:00:30;71.17;;;14.10;;
8036;SDS011;4061;51.360;7.340;2024-02-28T05:02:57;109.50;;;16.83;;
8036;SDS011;4061;51.360;7.340;2024-02-28T05:05:24;76.50;;;15.40;;
8036;SDS011;4061;51.360;7.340;2024-02-28T05:07:51;114.63;;;16.90;;
8036;SDS011;4061;51.360;7.340;2024-02-28T05:10:18;112.57;;;18.43;;
8036;SDS011;4061;51.360;7.340;2024-02-28T05:12:45;118.30;;;16.20;;
8036;SDS011;4061;51.360;7.340;2024-02-28T05:15:13;77.30;;;17.20;;
8036;SDS011;4061;51.360;7.340;2024-02-28T05:17:40;86.10;;;18.83;;
8036;SDS011;4061;51.360;7.340;2024-02-28T05:20:08;63.70;;;16.40;;
8036;SDS011;4061;51.360;7.340;2024-02-28T05:22:35;76.73;;;15.93;;
8036;SDS011;4061;51.360;7.340;2024-02-28T05:25:02;99.37;;;16.43;;
8036;SDS011;4061;51.360;7.340;2024-02-28T05:27:29;62.43;;;16.77;;
8036;SDS011;4061;51.360;7.340;2024-02-28T05:29:56;89.60;;;16.60;;
8036;SDS011;4061;51.360;7.340;2024-02-28T05:32:24;69.97;;;16.87;;
8036;SDS011;4061;51.360;7.340;2024-02-28T05:34:51;85.70;;;16.43;;
8036;SDS011;4061;51.360;7.340;2024-02-28T05:37:18;65.23;;;18.20;;
8036;SDS011;4061;51.360;7.340;2024-02-28T05:39:44;85.27;;;18.33;;
8036;SDS011;4061;51.360;7.340;2024-02-28T05:42:11;65.63;;;18.00;;
8036;SDS011;4061;51.360;7.340;2024-02-28T05:44:38;88.83;;;17.30;;
8036;SDS011;4061;51.360;7.340;2024-02-28T05:47:06;96.97;;;18.67;;
8036;SDS011;4061;51.360;7.340;2024-02-28T05:49:34;83.00;;;18.60;;
8036;SDS011;4061;51.360;7.340;2024-02-28T05:52:01;90.03;;;19.17;;
8036;SDS011;4061;51.360;7.340;2024-02-28T05:54:28;130.67;;;19.97;;
8036;SDS011;4061;51.360;7.340;2024-02-28T05:56:55;95.03;;;17.33;;
8036;SDS011;4061;51.360;7.340;2024-02-28T05:59:22;86.83;;;19.80;;
8036;SDS011;4061;51.360;7.340;2024-02-28T06:01:50;85.33;;;17.93;;
8036;SDS011;4061;51.360;7.340;2024-02-28T06:04:17;141.90;;;20.20;;
8036;SDS011;4061;51.360;7.340;2024-02-28T06:06:45;75.73;;;17.70;;
8036;SDS011;4061;51.360;7.340;2024-02-28T06:09:14;63.03;;;18.83;;
8036;SDS011;4061;51.360;7.340;2024-02-28T06:11:41;77.07;;;19.47;;
8036;SDS011;4061;51.360;7.340;2024-02-28T06:14:08;80.83;;;18.60;;
8036;SDS011;4061;51.360;7.340;2024-02-28T06:16:35;107.13;;;20.10;;
8036;SDS011;4061;51.360;7.340;2024-02-28T06:19:02;85.70;;;19.53;;
8036;SDS011;4061;51.360;7.340;2024-02-28T06:21:29;76.80;;;19.57;;
8036;SDS011;4061;51.360;7.340;2024-02-28T06:23:57;68.87;;;22.07;;
8036;SDS011;4061;51.360;7.340;2024-02-28T06:26:24;86.27;;;20.63;;
8036;SDS011;4061;51.360;7.340;2024-02-28T06:28:52;69.47;;;20.27;;
8036;SDS011;4061;51.360;7.340;2024-02-28T06:31:25;74.33;;;21.73;;
8036;SDS011;4061;51.360;7.340;2024-02-28T06:33:54;64.87;;;19.67;;
8036;SDS011;4061;51.360;7.340;2024-02-28T06:36:21;66.10;;;17.90;;
8036;SDS011;4061;51.360;7.340;2024-02-28T06:38:48;72.70;;;19.90;;
8036;SDS011;4061;51.360;7.340;2024-02-28T06:41:17;75.97;;;22.37;;
8036;SDS011;4061;51.360;7.340;2024-02-28T06:43:44;72.00;;;20.83;;
8036;SDS011;4061;51.360;7.340;2024-02-28T06:46:11;55.77;;;18.80;;
8036;SDS011;4061;51.360;7.340;2024-02-28T06:48:38;66.60;;;18.57;;
8036;SDS011;4061;51.360;7.340;2024-02-28T06:51:05;74.23;;;19.47;;
8036;SDS011;4061;51.360;7.340;2024-02-28T06:53:32;70.23;;;19.63;;
8036;SDS011;4061;51.360;7.340;2024-02-28T06:56:00;75.13;;;18.17;;
8036;SDS011;4061;51.360;7.340;2024-02-28T06:58:29;81.13;;;20.90;;
8036;SDS011;4061;51.360;7.340;2024-02-28T07:00:56;86.23;;;19.63;;
8036;SDS011;4061;51.360;7.340;2024-02-28T07:03:23;84.07;;;20.93;;
8036;SDS011;4061;51.360;7.340;2024-02-28T07:05:50;65.87;;;20.17;;
8036;SDS011;4061;51.360;7.340;2024-02-28T07:08:18;65.87;;;20.20;;
8036;SDS011;4061;51.360;7.340;2024-02-28T07:10:46;77.83;;;20.73;;
8036;SDS011;4061;51.360;7.340;2024-02-28T07:13:14;78.60;;;22.57;;
8036;SDS011;4061;51.360;7.340;2024-02-28T07:15:42;78.47;;;22.53;;
8036;SDS011;4061;51.360;7.340;2024-02-28T07:18:09;84.90;;;22.37;;
8036;SDS011;4061;51.360;7.340;2024-02-28T07:20:36;75.43;;;20.33;;
8036;SDS011;4061;51.360;7.340;2024-02-28T07:23:04;93.77;;;21.40;;
8036;SDS011;4061;51.360;7.340;2024-02-28T07:25:31;82.30;;;18.93;;
8036;SDS011;4061;51.360;7.340;2024-02-28T07:27:58;105.70;;;22.63;;
8036;SDS011;4061;51.360;7.340;2024-02-28T07:30:26;77.67;;;22.90;;
8036;SDS011;4061;51.360;7.340;2024-02-28T07:32:54;75.00;;;20.57;;
8036;SDS011;4061;51.360;7.340;2024-02-28T07:35:21;77.07;;;22.63;;
8036;SDS011;4061;51.360;7.340;2024-02-28T07:37:49;77.13;;;21.83;;
8036;SDS011;4061;51.360;7.340;2024-02-28T07:40:16;87.10;;;21.47;;
8036;SDS011;4061;51.360;7.340;2024-02-28T07:42:44;96.33;;;24.10;;
8036;SDS011;4061;51.360;7.340;2024-02-28T07:45:11;105.20;;;25.47;;
8036;SDS011;4061;51.360;7.340;2024-02-28T07:47:38;107.03;;;24.83;;
8036;SDS011;4061;51.360;7.340;2024-02-28T07:50:07;99.33;;;23.47;;
8036;SDS011;4061;51.360;7.340;2024-02-28T07:52:34;87.97;;;22.23;;
8036;SDS011;4061;51.360;7.340;2024-02-28T07:55:02;82.57;;;21.70;;
8036;SDS011;4061;51.360;7.340;2024-02-28T07:57:30;74.80;;;20.40;;
8036;SDS011;4061;51.360;7.340;2024-02-28T07:59:58;91.67;;;23.50;;
8036;SDS011;4061;51.360;7.340;2024-02-28T08:02:25;91.13;;;23.97;;
8036;SDS011;4061;51.360;7.340;2024-02-28T08:04:53;82.27;;;22.07;;
8036;SDS011;4061;51.360;7.340;2024-02-28T08:07:21;75.77;;;22.37;;
8036;SDS011;4061;51.360;7.340;2024-02-28T08:09:48;69.13;;;21.70;;
8036;SDS011;4061;51.360;7.340;2024-02-28T08:12:15;88.03;;;22.43;;
8036;SDS011;4061;51.360;7.340;2024-02-28T08:14:42;78.77;;;22.77;;
8036;SDS011;4061;51.360;7.340;2024-02-28T08:17:09;63.63;;;17.40;;
8036;SDS011;4061;51.360;7.340;2024-02-28T08:19:38;84.17;;;21.13;;
8036;SDS011;4061;51.360;7.340;2024-02-28T08:22:05;73.77;;;19.47;;
8036;SDS011;4061;51.360;7.340;2024-02-28T08:24:33;66.53;;;18.23;;
8036;SDS011;4061;51.360;7.340;2024-02-28T08:27:00;67.73;;;21.20;;
8036;SDS011;4061;51.360;7.340;2024-02-28T08:29:27;73.60;;;19.20;;
8036;SDS011;4061;51.360;7.340;2024-02-28T08:31:54;62.50;;;17.93;;
8036;SDS011;4061;51.360;7.340;2024-02-28T08:34:21;64.40;;;19.30;;
8036;SDS011;4061;51.360;7.340;2024-02-28T08:36:48;73.20;;;20.73;;
8036;SDS011;4061;51.360;7.340;2024-02-28T08:39:17;62.70;;;18.43;;
8036;SDS011;4061;51.360;7.340;2024-02-28T08:41:45;68.60;;;18.23;;
8036;SDS011;4061;51.360;7.340;2024-02-28T08:44:12;69.40;;;21.50;;
8036;SDS011;4061;51.360;7.340;2024-02-28T08:46:39;73.03;;;22.27;;
8036;SDS011;4061;51.360;7.340;2024-02-28T08:49:06;62.50;;;18.43;;
8036;SDS011;4061;51.360;7.340;2024-02-28T08:51:33;76.23;;;21.60;;
8036;SDS011;4061;51.360;7.340;2024-02-28T08:54:00;64.00;;;20.57;;
8036;SDS011;4061;51.360;7.340;2024-02-28T08:56:28;67.87;;;21.50;;
8036;SDS011;4061;51.360;7.340;2024-02-28T08:58:57;70.10;;;22.27;;
8036;SDS011;4061;51.360;7.340;2024-02-28T09:01:24;61.13;;;19.27;;
8036;SDS011;4061;51.360;7.340;2024-02-28T09:03:51;52.90;;;16.93;;
8036;SDS011;4061;51.360;7.340;2024-02-28T09:06:18;66.57;;;19.33;;
8036;SDS011;4061;51.360;7.340;2024-02-28T09:08:45;59.20;;;18.50;;
8036;SDS011;4061;51.360;7.340;2024-02-28T09:11:12;60.23;;;20.07;;
8036;SDS011;4061;51.360;7.340;2024-02-28T09:13:39;65.17;;;20.53;;
8036;SDS011;4061;51.360;7.340;2024-02-28T09:16:07;57.13;;;18.80;;
8036;SDS011;4061;51.360;7.340;2024-02-28T09:18:34;60.00;;;19.87;;
8036;SDS011;4061;51.360;7.340;2024-02-28T09:21:02;55.10;;;18.80;;
8036;SDS011;4061;51.360;7.340;2024-02-28T09:23:29;60.73;;;19.70;;
8036;SDS011;4061;51.360;7.340;2024-02-28T09:25:56;61.40;;;19.37;;
8036;SDS011;4061;51.360;7.340;2024-02-28T09:28:23;59.23;;;19.77;;
8036;SDS011;4061;51.360;7.340;2024-02-28T09:30:50;69.37;;;19.90;;
8036;SDS011;4061;51.360;7.340;2024-02-28T09:33:18;57.33;;;19.03;;
8036;SDS011;4061;51.360;7.340;2024-02-28T09:35:45;64.80;;;18.00;;
8036;SDS011;4061;51.360;7.340;2024-02-28T09:38:12;66.67;;;20.43;;
8036;SDS011;4061;51.360;7.340;2024-02-28T09:40:39;58.10;;;18.37;;
8036;SDS011;4061;51.360;7.340;2024-02-28T09:43:10;64.20;;;19.27;;
8036;SDS011;4061;51.360;7.340;2024-02-28T09:45:38;54.90;;;18.30;;
8036;SDS011;4061;51.360;7.340;2024-02-28T09:48:06;52.87;;;17.20;;
8036;SDS011;4061;51.360;7.340;2024-02-28T09:50:35;49.43;;;15.87;;
8036;SDS011;4061;51.360;7.340;2024-02-28T09:53:02;42.60;;;14.53;;
8036;SDS011;4061;51.360;7.340;2024-02-28T09:55:29;47.63;;;17.30;;
8036;SDS011;4061;51.360;7.340;2024-02-28T09:57:56;47.67;;;17.47;;
8036;SDS011;4061;51.360;7.340;2024-02-28T10:00:23;46.20;;;16.73;;
8036;SDS011;4061;51.360;7.340;2024-02-28T10:02:52;48.33;;;16.40;;
8036;SDS011;4061;51.360;7.340;2024-02-28T10:05:20;42.70;;;15.47;;
8036;SDS011;4061;51.360;7.340;2024-02-28T10:07:53;43.00;;;15.50;;
8036;SDS011;4061;51.360;7.340;2024-02-28T10:10:20;47.23;;;15.70;;
8036;SDS011;4061;51.360;7.340;2024-02-28T10:12:47;42.77;;;13.60;;
8036;SDS011;4061;51.360;7.340;2024-02-28T10:15:14;47.30;;;16.27;;
8036;SDS011;4061;51.360;7.340;2024-02-28T10:17:41;43.27;;;14.43;;
8036;SDS011;4061;51.360;7.340;2024-02-28T10:20:09;46.00;;;15.17;;
8036;SDS011;4061;51.360;7.340;2024-02-28T10:22:36;38.77;;;14.03;;
8036;SDS011;4061;51.360;7.340;2024-02-28T10:25:05;47.13;;;15.93;;
8036;SDS011;4061;51.360;7.340;2024-02-28T10:27:33;32.20;;;12.73;;
8036;SDS011;4061;51.360;7.340;2024-02-28T10:30:00;35.53;;;14.23;;
8036;SDS011;4061;51.360;7.340;2024-02-28T10:32:29;43.10;;;13.87;;
8036;SDS011;4061;51.360;7.340;2024-02-28T10:34:56;36.93;;;14.77;;
8036;SDS011;4061;51.360;7.340;2024-02-28T10:37:23;40.70;;;14.20;;
8036;SDS011;4061;51.360;7.340;2024-02-28T10:39:51;23.10;;;8.37;;
8036;SDS011;4061;51.360;7.340;2024-02-28T10:42:20;35.87;;;13.43;;
8036;SDS011;4061;51.360;7.340;2024-02-28T10:44:49;40.30;;;14.63;;
8036;SDS011;4061;51.360;7.340;2024-02-28T10:47:17;34.13;;;12.87;;
8036;SDS011;4061;51.360;7.340;2024-02-28T10:49:45;78.20;;;25.97;;
8036;SDS011;4061;51.360;7.340;2024-02-28T10:52:12;46.07;;;13.77;;
8036;SDS011;4061;51.360;7.340;2024-02-28T10:54:39;42.93;;;14.93;;
8036;SDS011;4061;51.360;7.340;2024-02-28T10:57:07;35.23;;;12.47;;
8036;SDS011;4061;51.360;7.340;2024-02-28T10:59:36;35.27;;;13.83;;
8036;SDS011;4061;51.360;7.340;2024-02-28T11:02:04;37.10;;;12.73;;
8036;SDS011;4061;51.360;7.340;2024-02-28T11:04:31;48.50;;;14.57;;
8036;SDS011;4061;51.360;7.340;2024-02-28T11:07:00;27.53;;;12.53;;
8036;SDS011;4061;51.360;7.340;2024-02-28T11:09:28;37.90;;;14.87;;
8036;SDS011;4061;51.360;7.340;2024-02-28T11:11:57;37.87;;;13.53;;
8036;SDS011;4061;51.360;7.340;2024-02-28T11:14:24;33.07;;;13.33;;
8036;SDS011;4061;51.360;7.340;2024-02-28T11:17:02;31.90;;;13.40;;
8036;SDS011;4061;51.360;7.340;2024-02-28T11:19:29;31.90;;;11.73;;
8036;SDS011;4061;51.360;7.340;2024-02-28T11:21:58;41.67;;;13.47;;
8036;SDS011;4061;51.360;7.340;2024-02-28T11:24:28;43.40;;;15.30;;
8036;SDS011;4061;51.360;7.340;2024-02-28T11:26:55;32.07;;;13.17;;
8036;SDS011;4061;51.360;7.340;2024-02-28T11:29:23;36.57;;;14.23;;
8036;SDS011;4061;51.360;7.340;2024-02-28T11:31:51;36.70;;;13.87;;
8036;SDS011;4061;51.360;7.340;2024-02-28T11:34:19;38.47;;;13.23;;
8036;SDS011;4061;51.360;7.340;2024-02-28T11:36:47;30.13;;;13.60;;
8036;SDS011;4061;51.360;7.340;2024-02-28T11:39:14;40.23;;;14.57;;
8036;SDS011;4061;51.360;7.340;2024-02-28T11:41:42;36.50;;;12.83;;
8036;SDS011;4061;51.360;7.340;2024-02-28T11:44:11;37.73;;;15.00;;
8036;SDS011;4061;51.360;7.340;2024-02-28T11:46:38;35.30;;;13.73;;
8036;SDS011;4061;51.360;7.340;2024-02-28T11:49:05;37.10;;;13.43;;
8036;SDS011;4061;51.360;7.340;2024-02-28T11:51:33;28.53;;;10.53;;
8036;SDS011;4061;51.360;7.340;2024-02-28T11:54:01;26.83;;;12.00;;
8036;SDS011;4061;51.360;7.340;2024-02-28T11:56:28;36.60;;;14.33;;
8036;SDS011;4061;51.360;7.340;2024-02-28T11:58:57;29.57;;;13.53;;
8036;SDS011;4061;51.360;7.340;2024-02-28T12:01:34;36.97;;;12.93;;
8036;SDS011;4061;51.360;7.340;2024-02-28T12:04:02;31.03;;;13.17;;
8036;SDS011;4061;51.360;7.340;2024-02-28T12:06:30;39.00;;;15.20;;
8036;SDS011;4061;51.360;7.340;2024-02-28T12:08:58;31.87;;;12.07;;
8036;SDS011;4061;51.360;7.340;2024-02-28T12:11:25;37.57;;;13.40;;
8036;SDS011;4061;51.360;7.340;2024-02-28T12:13:54;35.93;;;12.00;;
8036;SDS011;4061;51.360;7.340;2024-02-28T12:16:22;28.27;;;13.10;;
8036;SDS011;4061;51.360;7.340;2024-02-28T12:18:49;31.37;;;12.47;;
8036;SDS011;4061;51.360;7.340;2024-02-28T12:21:16;36.50;;;12.73;;
8036;SDS011;4061;51.360;7.340;2024-02-28T12:23:43;39.30;;;13.17;;
8036;SDS011;4061;51.360;7.340;2024-02-28T12:26:12;33.37;;;11.73;;
8036;SDS011;4061;51.360;7.340;2024-02-28T12:28:39;32.60;;;11.07;;
8036;SDS011;4061;51.360;7.340;2024-02-28T12:31:06;28.63;;;10.77;;
8036;SDS011;4061;51.360;7.340;2024-02-28T12:33:36;32.53;;;12.30;;
8036;SDS011;4061;51.360;7.340;2024-02-28T12:36:03;30.70;;;11.87;;
8036;SDS011;4061;51.360;7.340;2024-02-28T12:38:31;34.10;;;13.23;;
8036;SDS011;4061;51.360;7.340;2024-02-28T12:40:58;29.27;;;11.77;;
8036;SDS011;4061;51.360;7.340;2024-02-28T12:43:26;32.03;;;13.53;;
8036;SDS011;4061;51.360;7.340;2024-02-28T12:45:53;35.13;;;11.67;;
8036;SDS011;4061;51.360;7.340;2024-02-28T12:48:20;32.27;;;13.20;;
8036;SDS011;4061;51.360;7.340;2024-02-28T12:50:47;28.23;;;12.10;;
8036;SDS011;4061;51.360;7.340;2024-02-28T12:53:14;28.80;;;11.47;;
8036;SDS011;4061;51.360;7.340;2024-02-28T12:55:41;28.97;;;12.17;;
8036;SDS011;4061;51.360;7.340;2024-02-28T12:58:10;24.77;;;10.40;;
8036;SDS011;4061;51.360;7.340;2024-02-28T13:00:38;24.80;;;10.10;;
8036;SDS011;4061;51.360;7.340;2024-02-28T13:03:05;30.37;;;12.57;;
8036;SDS011;4061;51.360;7.340;2024-02-28T13:05:32;28.50;;;11.00;;
8036;SDS011;4061;51.360;7.340;2024-02-28T13:07:59;28.20;;;10.53;;
8036;SDS011;4061;51.360;7.340;2024-02-28T13:10:26;25.67;;;9.53;;
8036;SDS011;4061;51.360;7.340;2024-02-28T13:12:54;18.90;;;8.33;;
8036;SDS011;4061;51.360;7.340;2024-02-28T13:15:21;22.17;;;8.50;;
8036;SDS011;4061;51.360;7.340;2024-02-28T13:17:49;37.08;;;9.77;;
8036;SDS011;4061;51.360;7.340;2024-02-28T13:20:17;23.57;;;9.83;;
8036;SDS011;4061;51.360;7.340;2024-02-28T13:22:44;25.83;;;10.30;;
8036;SDS011;4061;51.360;7.340;2024-02-28T13:25:11;32.70;;;11.37;;
8036;SDS011;4061;51.360;7.340;2024-02-28T13:27:39;32.30;;;12.23;;
8036;SDS011;4061;51.360;7.340;2024-02-28T13:30:06;25.65;;;10.77;;
8036;SDS011;4061;51.360;7.340;2024-02-28T13:32:34;28.27;;;10.30;;
8036;SDS011;4061;51.360;7.340;2024-02-28T13:35:02;30.47;;;11.53;;
8036;SDS011;4061;51.360;7.340;2024-02-28T13:37:29;27.65;;;9.80;;
8036;SDS011;4061;51.360;7.340;2024-02-28T13:39:58;24.98;;;10.50;;
8036;SDS011;4061;51.360;7.340;2024-02-28T13:42:26;27.63;;;10.10;;
8036;SDS011;4061;51.360;7.340;2024-02-28T13:44:53;24.02;;;9.88;;
8036;SDS011;4061;51.360;7.340;2024-02-28T13:47:20;32.20;;;11.73;;
8036;SDS011;4061;51.360;7.340;2024-02-28T13:49:48;34.17;;;12.07;;
8036;SDS011;4061;51.360;7.340;2024-02-28T13:52:17;22.60;;;9.18;;
8036;SDS011;4061;51.360;7.340;2024-02-28T13:54:44;27.58;;;10.80;;
8036;SDS011;4061;51.360;7.340;2024-02-28T13:57:12;21.05;;;10.43;;
8036;SDS011;4061;51.360;7.340;2024-02-28T13:59:39;29.33;;;12.20;;
8036;SDS011;4061;51.360;7.340;2024-02-28T14:02:06;24.08;;;10.25;;
8036;SDS011;4061;51.360;7.340;2024-02-28T14:04:35;27.75;;;11.35;;
8036;SDS011;4061;51.360;7.340;2024-02-28T14:07:03;28.88;;;11.88;;
8036;SDS011;4061;51.360;7.340;2024-02-28T14:09:31;27.90;;;10.38;;
8036;SDS011;4061;51.360;7.340;2024-02-28T14:11:58;25.48;;;11.15;;
8036;SDS011;4061;51.360;7.340;2024-02-28T14:14:25;26.85;;;10.23;;
8036;SDS011;4061;51.360;7.340;2024-02-28T14:16:52;26.08;;;10.98;;
8036;SDS011;4061;51.360;7.340;2024-02-28T14:19:19;26.27;;;10.52;;
8036;SDS011;4061;51.360;7.340;2024-02-28T14:21:46;23.02;;;10.18;;
8036;SDS011;4061;51.360;7.340;2024-02-28T14:24:13;25.15;;;10.50;;
8036;SDS011;4061;51.360;7.340;2024-02-28T14:29:17;22.08;;;9.18;;
8036;SDS011;4061;51.360;7.340;2024-02-28T14:31:44;22.85;;;8.45;;
8036;SDS011;4061;51.360;7.340;2024-02-28T14:34:11;18.67;;;8.10;;
8036;SDS011;4061;51.360;7.340;2024-02-28T14:36:38;17.67;;;6.60;;
8036;SDS011;4061;51.360;7.340;2024-02-28T14:39:05;16.42;;;7.10;;
8036;SDS011;4061;51.360;7.340;2024-02-28T14:41:40;16.25;;;6.72;;
8036;SDS011;4061;51.360;7.340;2024-02-28T14:44:07;18.15;;;5.63;;
8036;SDS011;4061;51.360;7.340;2024-02-28T14:46:35;14.02;;;5.70;;
8036;SDS011;4061;51.360;7.340;2024-02-28T14:51:34;15.57;;;6.00;;
8036;SDS011;4061;51.360;7.340;2024-02-28T14:54:01;17.33;;;6.28;;